createdAt,value
2017-07-21T00:00:50.852Z,0
2017-07-21T00:02:06.318Z,0
2017-07-21T00:03:21.756Z,0
2017-07-21T00:04:37.735Z,0
2017-07-21T00:06:06.762Z,0
2017-07-21T00:07:20.904Z,0
2017-07-21T00:08:36.402Z,0
2017-07-21T00:09:51.850Z,0
2017-07-21T00:11:07.489Z,0
2017-07-21T00:12:22.037Z,0
2017-07-21T00:13:37.484Z,0
2017-07-21T00:14:53.228Z,0
2017-07-21T00:16:08.817Z,0
2017-07-21T00:17:24.328Z,0
2017-07-21T00:18:39.989Z,0
2017-07-21T00:19:54.433Z,0
2017-07-21T00:21:09.940Z,0
2017-07-21T00:22:25.409Z,0
2017-07-21T00:23:40.822Z,0
2017-07-21T00:24:56.648Z,0
2017-07-21T00:26:12.080Z,0
2017-07-21T00:27:27.651Z,0
2017-07-21T00:28:43.115Z,0
2017-07-21T00:29:58.848Z,0
2017-07-21T00:31:14.315Z,0
2017-07-21T00:32:29.497Z,0
2017-07-21T00:33:45.139Z,0
2017-07-21T00:35:00.846Z,0
2017-07-21T00:36:16.506Z,0
2017-07-21T00:37:32.124Z,0
2017-07-21T00:38:47.553Z,0
2017-07-21T00:40:01.948Z,0
2017-07-21T00:41:17.417Z,0
2017-07-21T00:42:31.681Z,0
2017-07-21T00:43:47.117Z,0
2017-07-21T00:45:03.324Z,0
2017-07-21T00:46:18.804Z,0
2017-07-21T00:47:34.277Z,0
2017-07-21T00:48:48.427Z,0
2017-07-21T00:50:04.134Z,0
2017-07-21T00:51:19.593Z,0
2017-07-21T00:52:35.045Z,0
2017-07-21T00:53:50.490Z,0
2017-07-21T00:55:06.218Z,0
2017-07-21T00:56:21.728Z,0
2017-07-21T00:57:36.785Z,0
2017-07-21T00:58:52.251Z,0
2017-07-21T01:00:07.946Z,0
2017-07-21T01:01:23.445Z,0
2017-07-21T01:02:38.860Z,0
2017-07-21T01:03:53.016Z,0
2017-07-21T01:05:08.749Z,0
2017-07-21T01:06:24.234Z,0
2017-07-21T01:07:38.334Z,0
2017-07-21T01:08:53.819Z,0
2017-07-21T01:10:09.201Z,0
2017-07-21T01:11:24.657Z,0
2017-07-21T01:12:40.082Z,0
2017-07-21T01:13:55.546Z,0
2017-07-21T01:15:11.300Z,0
2017-07-21T01:16:26.764Z,0
2017-07-21T01:17:42.220Z,0
2017-07-21T01:18:56.414Z,0
2017-07-21T01:20:12.076Z,0
2017-07-21T01:21:27.760Z,0
2017-07-21T01:22:43.250Z,0
2017-07-21T01:23:58.685Z,0
2017-07-21T01:25:14.402Z,0
2017-07-21T01:26:29.832Z,0
2017-07-21T01:27:43.999Z,0
2017-07-21T01:28:59.459Z,0
2017-07-21T01:30:15.264Z,0
2017-07-21T01:31:30.752Z,0
2017-07-21T01:32:45.787Z,0
2017-07-21T01:34:01.242Z,0
2017-07-21T01:35:16.956Z,0
2017-07-21T01:36:32.445Z,0
2017-07-21T01:37:47.896Z,0
2017-07-21T01:39:03.362Z,0
2017-07-21T01:40:19.222Z,0
2017-07-21T01:41:34.873Z,0
2017-07-21T01:42:50.304Z,0
2017-07-21T01:44:05.729Z,0
2017-07-21T01:45:21.454Z,0
2017-07-21T01:46:36.881Z,0
2017-07-21T01:47:52.303Z,0
2017-07-21T01:49:07.751Z,0
2017-07-21T01:50:23.471Z,0
2017-07-21T01:51:38.970Z,0
2017-07-21T01:52:54.420Z,0
2017-07-21T01:54:08.707Z,0
2017-07-21T01:55:21.774Z,0
2017-07-21T01:56:34.639Z,0
2017-07-21T01:57:50.192Z,0
2017-07-21T01:59:05.754Z,0
2017-07-21T02:00:20.171Z,0
2017-07-21T02:01:35.735Z,0
2017-07-21T02:02:51.177Z,0
2017-07-21T02:04:06.606Z,0
2017-07-21T02:05:21.018Z,0
2017-07-21T02:06:36.517Z,0
2017-07-21T02:07:51.961Z,0
2017-07-21T02:09:07.657Z,0
2017-07-21T02:10:23.508Z,0
2017-07-21T02:11:38.601Z,0
2017-07-21T02:12:54.044Z,0
2017-07-21T02:14:09.536Z,0
2017-07-21T02:15:25.274Z,0
2017-07-21T02:16:39.009Z,0
2017-07-21T02:17:54.466Z,0
2017-07-21T02:19:09.903Z,0
2017-07-21T02:20:26.194Z,0
2017-07-21T02:21:41.594Z,0
2017-07-21T02:22:57.462Z,0
2017-07-21T02:24:13.077Z,0
2017-07-21T02:25:28.772Z,0
2017-07-21T02:26:44.246Z,0
2017-07-21T02:27:58.358Z,0
2017-07-21T02:29:13.798Z,0
2017-07-21T02:30:29.536Z,0
2017-07-21T02:31:44.978Z,0
2017-07-21T02:33:00.105Z,0
2017-07-21T02:34:15.750Z,0
2017-07-21T02:35:31.621Z,0
2017-07-21T02:36:47.121Z,0
2017-07-21T02:38:02.191Z,0
2017-07-21T02:39:17.679Z,0
2017-07-21T02:40:32.135Z,0
2017-07-21T02:41:46.355Z,0
2017-07-21T02:43:01.831Z,0
2017-07-21T02:44:15.967Z,0
2017-07-21T02:45:31.703Z,0
2017-07-21T02:46:47.142Z,0
2017-07-21T02:48:02.602Z,0
2017-07-21T02:49:18.071Z,0
2017-07-21T02:50:34.028Z,0
2017-07-21T02:51:49.457Z,0
2017-07-21T02:53:04.866Z,0
2017-07-21T02:54:17.707Z,0
2017-07-21T02:55:31.908Z,0
2017-07-21T02:56:47.661Z,0
2017-07-21T02:58:03.158Z,0
2017-07-21T02:59:18.809Z,0
2017-07-21T03:00:34.260Z,0
2017-07-21T03:01:49.933Z,0
2017-07-21T03:03:05.406Z,0
2017-07-21T03:04:20.838Z,0
2017-07-21T03:05:36.235Z,0
2017-07-21T03:06:51.930Z,0
2017-07-21T03:08:06.099Z,0
2017-07-21T03:09:21.747Z,0
2017-07-21T03:10:37.209Z,0
2017-07-21T03:11:53.146Z,0
2017-07-21T03:13:08.804Z,5
2017-07-21T03:14:24.443Z,5
2017-07-21T03:15:39.882Z,5
2017-07-21T03:16:55.579Z,5
2017-07-21T03:18:10.030Z,5
2017-07-21T03:19:25.508Z,5
2017-07-21T03:20:40.990Z,5
2017-07-21T03:21:56.823Z,5
2017-07-21T03:23:12.261Z,10
2017-07-21T03:24:27.769Z,10
2017-07-21T03:25:43.224Z,10
2017-07-21T03:26:58.902Z,10
2017-07-21T03:28:13.132Z,15
2017-07-21T03:29:28.944Z,15
2017-07-21T03:30:44.384Z,15
2017-07-21T03:31:58.809Z,15
2017-07-21T03:33:14.259Z,20
2017-07-21T03:34:29.916Z,20
2017-07-21T03:35:45.400Z,20
2017-07-21T03:37:01.069Z,20
2017-07-21T03:38:16.489Z,25
2017-07-21T03:39:31.940Z,25
2017-07-21T03:40:47.399Z,25
2017-07-21T03:42:03.047Z,30
2017-07-21T03:43:17.213Z,30
2017-07-21T03:44:31.407Z,30
2017-07-21T03:45:46.840Z,35
2017-07-21T03:47:02.598Z,35
2017-07-21T03:48:16.792Z,40
2017-07-21T03:49:32.204Z,40
2017-07-21T03:50:46.441Z,40
2017-07-21T03:52:02.159Z,45
2017-07-21T03:53:17.651Z,45
2017-07-21T03:54:33.263Z,50
2017-07-21T03:55:48.683Z,50
2017-07-21T03:57:04.433Z,50
2017-07-21T03:58:20.008Z,55
2017-07-21T03:59:35.548Z,60
2017-07-21T04:00:51.024Z,60
2017-07-21T04:02:06.731Z,65
2017-07-21T04:03:20.924Z,65
2017-07-21T04:04:36.370Z,70
2017-07-21T04:05:51.927Z,70
2017-07-21T04:07:07.732Z,70
2017-07-21T04:08:21.783Z,70
2017-07-21T04:09:37.271Z,70
2017-07-21T04:10:52.730Z,75
2017-07-21T04:12:08.438Z,75
2017-07-21T04:13:23.881Z,75
2017-07-21T04:14:39.417Z,80
2017-07-21T04:15:54.887Z,80
2017-07-21T04:17:10.547Z,80
2017-07-21T04:18:26.025Z,85
2017-07-21T04:19:41.499Z,85
2017-07-21T04:20:56.993Z,85
2017-07-21T04:22:12.663Z,90
2017-07-21T04:23:28.151Z,90
2017-07-21T04:24:43.550Z,95
2017-07-21T04:25:59.183Z,95
2017-07-21T04:27:14.530Z,100
2017-07-21T04:28:30.115Z,95
2017-07-21T04:29:45.807Z,100
2017-07-21T04:31:01.265Z,100
2017-07-21T04:32:16.985Z,105
2017-07-21T04:33:32.428Z,105
2017-07-21T04:34:47.884Z,110
2017-07-21T04:36:03.346Z,110
2017-07-21T04:37:19.099Z,115
2017-07-21T04:38:33.185Z,115
2017-07-21T04:39:47.380Z,115
2017-07-21T04:41:02.840Z,120
2017-07-21T04:42:18.581Z,120
2017-07-21T04:43:34.016Z,120
2017-07-21T04:44:49.494Z,125
2017-07-21T04:46:05.044Z,125
2017-07-21T04:47:20.733Z,130
2017-07-21T04:48:36.225Z,130
2017-07-21T04:49:52.017Z,135
2017-07-21T04:51:07.443Z,135
2017-07-21T04:52:23.122Z,140
2017-07-21T04:53:38.644Z,140
2017-07-21T04:54:54.111Z,145
2017-07-21T04:56:09.478Z,145
2017-07-21T04:57:25.163Z,145
2017-07-21T04:58:40.639Z,150
2017-07-21T04:59:56.113Z,155
2017-07-21T05:01:11.556Z,160
2017-07-21T05:02:27.276Z,165
2017-07-21T05:03:42.842Z,170
2017-07-21T05:04:58.321Z,180
2017-07-21T05:06:14.004Z,185
2017-07-21T05:07:29.736Z,175
2017-07-21T05:08:45.179Z,170
2017-07-21T05:10:00.560Z,165
2017-07-21T05:11:16.280Z,165
2017-07-21T05:12:31.987Z,165
2017-07-21T05:13:47.447Z,160
2017-07-21T05:15:02.989Z,165
2017-07-21T05:16:18.405Z,165
2017-07-21T05:17:34.105Z,170
2017-07-21T05:18:49.538Z,160
2017-07-21T05:20:35.887Z,160
2017-07-21T05:21:51.854Z,170
2017-07-21T05:23:07.541Z,170
2017-07-21T05:24:23.028Z,180
2017-07-21T05:25:38.438Z,185
2017-07-21T05:26:52.637Z,190
2017-07-21T05:28:07.136Z,190
2017-07-21T05:29:22.655Z,190
2017-07-21T05:30:36.817Z,195
2017-07-21T05:31:52.272Z,195
2017-07-21T05:33:08.053Z,200
2017-07-21T05:34:23.534Z,200
2017-07-21T05:35:38.959Z,205
2017-07-21T05:36:54.415Z,205
2017-07-21T05:38:10.130Z,210
2017-07-21T05:39:25.244Z,215
2017-07-21T05:40:39.408Z,215
2017-07-21T05:41:53.550Z,215
2017-07-21T05:43:09.449Z,210
2017-07-21T05:44:24.904Z,205
2017-07-21T05:45:40.336Z,215
2017-07-21T05:46:55.789Z,225
2017-07-21T05:48:11.697Z,225
2017-07-21T05:49:27.375Z,230
2017-07-21T05:50:42.432Z,260
2017-07-21T05:51:57.986Z,260
2017-07-21T05:53:13.668Z,265
2017-07-21T05:54:29.199Z,275
2017-07-21T05:55:44.323Z,300
2017-07-21T05:56:59.797Z,320
2017-07-21T05:58:15.540Z,330
2017-07-21T05:59:31.033Z,360
2017-07-21T06:00:46.477Z,350
2017-07-21T06:02:01.994Z,360
2017-07-21T06:03:17.895Z,360
2017-07-21T06:04:32.956Z,360
2017-07-21T06:05:46.934Z,335
2017-07-21T06:07:01.113Z,315
2017-07-21T06:08:17.089Z,305
2017-07-21T06:09:32.534Z,310
2017-07-21T06:10:46.687Z,320
2017-07-21T06:12:02.176Z,335
2017-07-21T06:13:16.611Z,335
2017-07-21T06:14:32.100Z,345
2017-07-21T06:15:47.741Z,355
2017-07-21T06:17:03.193Z,360
2017-07-21T06:18:19.067Z,360
2017-07-21T06:19:34.483Z,365
2017-07-21T06:20:48.688Z,365
2017-07-21T06:22:04.329Z,355
2017-07-21T06:23:20.024Z,355
2017-07-21T06:24:34.182Z,360
2017-07-21T06:25:49.234Z,360
2017-07-21T06:27:04.692Z,360
2017-07-21T06:28:20.617Z,375
2017-07-21T06:29:36.159Z,375
2017-07-21T06:30:51.664Z,375
2017-07-21T06:32:07.082Z,365
2017-07-21T06:33:22.703Z,355
2017-07-21T06:34:38.201Z,355
2017-07-21T06:35:53.684Z,370
2017-07-21T06:37:09.360Z,390
2017-07-21T06:38:25.098Z,390
2017-07-21T06:39:40.549Z,380
2017-07-21T06:40:56.014Z,375
2017-07-21T06:42:11.494Z,370
2017-07-21T06:43:27.829Z,375
2017-07-21T06:44:55.761Z,380
2017-07-21T06:46:11.243Z,385
2017-07-21T06:47:26.874Z,370
2017-07-21T06:48:42.573Z,355
2017-07-21T06:49:58.000Z,355
2017-07-21T06:51:13.489Z,375
2017-07-21T06:52:29.131Z,390
2017-07-21T06:53:43.500Z,405
2017-07-21T06:54:58.919Z,415
2017-07-21T06:56:13.218Z,415
2017-07-21T06:57:27.420Z,420
2017-07-21T06:58:43.106Z,435
2017-07-21T06:59:58.612Z,440
2017-07-21T07:01:14.299Z,455
2017-07-21T07:02:29.882Z,470
2017-07-21T07:03:45.606Z,480
2017-07-21T07:06:30.259Z,500
2017-07-21T07:07:45.758Z,495
2017-07-21T07:09:01.463Z,500
2017-07-21T07:10:16.941Z,505
2017-07-21T07:11:32.433Z,510
2017-07-21T07:12:46.828Z,515
2017-07-21T07:14:02.603Z,520
2017-07-21T07:15:18.119Z,535
2017-07-21T07:16:33.590Z,535
2017-07-21T07:17:48.631Z,540
2017-07-21T07:19:04.443Z,550
2017-07-21T07:20:19.901Z,555
2017-07-21T07:21:35.363Z,570
2017-07-21T07:22:49.704Z,580
2017-07-21T07:24:05.434Z,575
2017-07-21T07:25:20.882Z,575
2017-07-21T07:26:36.319Z,580
2017-07-21T07:27:50.519Z,585
2017-07-21T07:29:04.760Z,585
2017-07-21T07:30:20.293Z,600
2017-07-21T07:31:35.777Z,620
2017-07-21T07:32:50.871Z,635
2017-07-21T07:34:06.640Z,655
2017-07-21T07:35:22.105Z,665
2017-07-21T07:36:36.086Z,680
2017-07-21T07:39:19.509Z,705
2017-07-21T07:40:33.936Z,710
2017-07-21T07:41:49.771Z,685
2017-07-21T07:43:05.243Z,660
2017-07-21T07:44:20.935Z,660
2017-07-21T07:45:35.063Z,695
2017-07-21T07:46:50.535Z,705
2017-07-21T07:48:06.051Z,705
2017-07-21T07:49:21.761Z,745
2017-07-21T07:50:37.249Z,690
2017-07-21T07:51:52.901Z,685
2017-07-21T07:53:08.315Z,725
2017-07-21T07:54:23.976Z,725
2017-07-21T07:55:38.175Z,715
2017-07-21T07:56:53.628Z,665
2017-07-21T07:58:09.127Z,685
2017-07-21T07:59:23.379Z,650
2017-07-21T08:00:38.885Z,640
2017-07-21T08:01:54.317Z,665
2017-07-21T08:03:09.802Z,635
2017-07-21T08:04:25.792Z,595
2017-07-21T08:05:41.306Z,625
2017-07-21T08:06:55.519Z,640
2017-07-21T08:08:11.027Z,645
2017-07-21T08:09:25.404Z,630
2017-07-21T08:10:40.863Z,645
2017-07-21T08:11:55.036Z,670
2017-07-21T08:13:10.482Z,675
2017-07-21T08:14:26.170Z,660
2017-07-21T08:15:40.195Z,600
2017-07-21T08:16:55.724Z,635
2017-07-21T08:18:11.199Z,590
2017-07-21T08:19:27.059Z,665
2017-07-21T08:20:42.518Z,655
2017-07-21T08:21:57.984Z,620
2017-07-21T08:23:13.453Z,670
2017-07-21T08:24:29.159Z,690
2017-07-21T08:25:44.640Z,705
2017-07-21T08:27:00.735Z,745
2017-07-21T08:28:15.104Z,765
2017-07-21T08:29:30.782Z,790
2017-07-21T08:30:44.820Z,800
2017-07-21T08:32:00.487Z,825
2017-07-21T08:33:15.995Z,835
2017-07-21T08:34:31.695Z,855
2017-07-21T08:35:47.210Z,825
2017-07-21T08:37:02.666Z,815
2017-07-21T08:38:18.348Z,855
2017-07-21T08:39:34.029Z,780
2017-07-21T08:41:03.098Z,1275
2017-07-21T08:42:18.611Z,920
2017-07-21T08:43:34.091Z,1335
2017-07-21T08:44:49.795Z,2245
2017-07-21T08:46:05.273Z,1655
2017-07-21T08:47:20.720Z,2540
2017-07-21T08:48:36.178Z,1810
2017-07-21T08:49:51.881Z,1135
2017-07-21T08:51:05.846Z,2170
2017-07-21T08:52:21.313Z,2250
2017-07-21T08:53:36.777Z,1875
2017-07-21T08:54:52.522Z,1405
2017-07-21T08:56:08.194Z,2280
2017-07-21T08:57:23.877Z,2900
2017-07-21T08:58:39.326Z,2385
2017-07-21T08:59:55.038Z,2775
2017-07-21T09:01:10.680Z,1630
2017-07-21T09:02:24.743Z,1610
2017-07-21T09:03:40.614Z,2400
2017-07-21T09:04:56.309Z,3045
2017-07-21T09:06:11.838Z,3460
2017-07-21T09:07:27.403Z,4045
2017-07-21T09:08:42.853Z,4160
2017-07-21T09:09:58.606Z,4110
2017-07-21T09:11:13.907Z,3680
2017-07-21T09:12:29.402Z,2915
2017-07-21T09:13:44.899Z,3195
2017-07-21T09:15:00.586Z,3005
2017-07-21T09:16:16.068Z,3100
2017-07-21T09:17:31.605Z,3240
2017-07-21T09:18:46.948Z,3260
2017-07-21T09:20:02.671Z,2975
2017-07-21T09:21:18.407Z,3025
2017-07-21T09:22:32.581Z,3075
2017-07-21T09:23:48.071Z,3145
2017-07-21T09:25:03.795Z,3235
2017-07-21T09:26:19.357Z,3200
2017-07-21T09:27:34.899Z,3085
2017-07-21T09:28:50.565Z,2995
2017-07-21T09:30:06.396Z,3055
2017-07-21T09:31:21.758Z,3110
2017-07-21T09:32:35.796Z,3285
2017-07-21T09:33:51.350Z,3405
2017-07-21T09:35:06.013Z,3505
2017-07-21T09:36:21.526Z,2820
2017-07-21T09:37:37.056Z,3580
2017-07-21T09:38:52.717Z,3660
2017-07-21T09:40:08.439Z,3505
2017-07-21T09:41:22.617Z,1805
2017-07-21T09:42:36.792Z,3350
2017-07-21T09:43:52.665Z,3095
2017-07-21T09:45:21.933Z,3095
2017-07-21T09:46:37.382Z,3165
2017-07-21T09:47:52.862Z,3245
2017-07-21T09:49:09.220Z,3255
2017-07-21T09:50:25.188Z,3255
2017-07-21T09:51:40.886Z,3205
2017-07-21T09:52:56.590Z,3185
2017-07-21T09:54:12.110Z,3245
2017-07-21T09:55:28.053Z,3450
2017-07-21T09:56:43.530Z,3750
2017-07-21T09:57:59.052Z,3895
2017-07-21T09:59:14.504Z,3735
2017-07-21T10:00:30.499Z,3550
2017-07-21T10:01:45.988Z,3505
2017-07-21T10:03:01.889Z,3580
2017-07-21T10:04:17.381Z,3680
2017-07-21T10:05:33.106Z,4000
2017-07-21T10:06:48.623Z,3435
2017-07-21T10:08:04.116Z,1465
2017-07-21T10:09:19.602Z,2880
2017-07-21T10:10:35.506Z,3220
2017-07-21T10:11:51.034Z,3625
2017-07-21T10:13:06.521Z,3205
2017-07-21T10:14:22.046Z,3005
2017-07-21T10:15:37.835Z,3320
2017-07-21T10:16:53.281Z,3525
2017-07-21T10:18:07.469Z,3605
2017-07-21T10:19:22.923Z,3550
2017-07-21T10:20:38.630Z,4015
2017-07-21T10:21:54.133Z,3955
2017-07-21T10:23:09.981Z,4650
2017-07-21T10:24:25.482Z,4380
2017-07-21T10:25:41.194Z,1165
2017-07-21T10:26:56.680Z,3880
2017-07-21T10:28:12.315Z,895
2017-07-21T10:29:27.867Z,790
2017-07-21T10:30:43.264Z,845
2017-07-21T10:31:58.762Z,1055
2017-07-21T10:33:14.269Z,860
2017-07-21T10:34:28.471Z,850
2017-07-21T10:35:44.287Z,930
2017-07-21T10:36:59.752Z,3780
2017-07-21T10:38:14.149Z,4210
2017-07-21T10:39:29.710Z,4205
2017-07-21T10:40:45.664Z,4180
2017-07-21T10:42:01.326Z,4455
2017-07-21T10:43:16.845Z,4530
2017-07-21T10:44:32.565Z,4660
2017-07-21T10:45:48.275Z,4890
2017-07-21T10:47:03.753Z,4590
2017-07-21T10:48:19.425Z,4470
2017-07-21T10:49:34.927Z,1195
2017-07-21T10:50:50.612Z,870
2017-07-21T10:52:06.133Z,855
2017-07-21T10:53:21.619Z,930
2017-07-21T10:54:37.067Z,1260
2017-07-21T10:55:52.790Z,4490
2017-07-21T10:57:06.993Z,4670
2017-07-21T10:58:22.538Z,850
2017-07-21T10:59:36.930Z,690
2017-07-21T11:00:52.678Z,670
2017-07-21T11:02:07.811Z,735
2017-07-21T11:03:23.355Z,4445
2017-07-21T11:04:38.872Z,4535
2017-07-21T11:05:54.647Z,3695
2017-07-21T11:07:10.185Z,1160
2017-07-21T11:08:25.708Z,1310
2017-07-21T11:10:12.002Z,4020
2017-07-21T11:11:27.725Z,2880
2017-07-21T11:12:43.207Z,2530
2017-07-21T11:13:57.363Z,4885
2017-07-21T11:15:12.825Z,5090
2017-07-21T11:16:28.623Z,5075
2017-07-21T11:17:44.138Z,4885
2017-07-21T11:18:59.668Z,4850
2017-07-21T11:20:15.563Z,1750
2017-07-21T11:21:30.911Z,4650
2017-07-21T11:22:46.430Z,945
2017-07-21T11:24:02.023Z,805
2017-07-21T11:25:17.741Z,820
2017-07-21T11:26:33.503Z,870
2017-07-21T11:27:49.004Z,1155
2017-07-21T11:29:04.490Z,4455
2017-07-21T11:30:18.524Z,1150
2017-07-21T11:31:34.250Z,1020
2017-07-21T11:32:49.766Z,1620
2017-07-21T11:34:05.397Z,970
2017-07-21T11:35:20.933Z,1045
2017-07-21T11:36:36.697Z,1155
2017-07-21T11:37:52.147Z,1280
2017-07-21T11:39:07.638Z,1180
2017-07-21T11:40:23.196Z,1140
2017-07-21T11:41:38.913Z,1230
2017-07-21T11:42:54.397Z,3215
2017-07-21T11:44:09.861Z,1610
2017-07-21T11:45:25.329Z,1255
2017-07-21T11:46:41.124Z,1170
2017-07-21T11:48:27.377Z,2260
2017-07-21T11:49:42.902Z,2115
2017-07-21T11:50:58.416Z,1325
2017-07-21T11:52:14.251Z,4825
2017-07-21T11:53:28.607Z,4645
2017-07-21T11:54:42.753Z,1925
2017-07-21T11:55:58.257Z,1030
2017-07-21T11:57:14.066Z,1340
2017-07-21T11:58:43.128Z,3640
2017-07-21T11:59:58.607Z,1150
2017-07-21T12:01:12.788Z,1015
2017-07-21T12:02:28.565Z,1155
2017-07-21T12:03:44.037Z,1310
2017-07-21T12:04:58.196Z,925
2017-07-21T12:06:13.641Z,870
2017-07-21T12:07:29.333Z,780
2017-07-21T12:08:44.823Z,740
2017-07-21T12:10:13.790Z,720
2017-07-21T12:11:27.950Z,745
2017-07-21T12:12:43.714Z,870
2017-07-21T12:13:59.230Z,955
2017-07-21T12:15:14.711Z,955
2017-07-21T12:16:28.881Z,2455
2017-07-21T12:17:44.714Z,890
2017-07-21T12:18:59.825Z,815
2017-07-21T12:20:15.261Z,770
2017-07-21T12:21:30.700Z,900
2017-07-21T12:22:46.451Z,950
2017-07-21T12:24:01.952Z,1050
2017-07-21T12:25:17.556Z,1040
2017-07-21T12:26:33.056Z,1000
2017-07-21T12:27:48.797Z,1095
2017-07-21T12:29:04.317Z,910
2017-07-21T12:30:19.815Z,960
2017-07-21T12:31:35.299Z,970
2017-07-21T12:32:51.169Z,840
2017-07-21T12:34:06.676Z,805
2017-07-21T12:35:22.182Z,1145
2017-07-21T12:36:38.003Z,1005
2017-07-21T12:37:53.809Z,995
2017-07-21T12:39:09.374Z,1065
2017-07-21T12:40:24.499Z,2195
2017-07-21T12:41:39.964Z,1925
2017-07-21T12:42:55.746Z,4220
2017-07-21T12:44:11.429Z,4115
2017-07-21T12:45:26.514Z,3960
2017-07-21T12:46:40.680Z,4030
2017-07-21T12:47:56.354Z,1825
2017-07-21T12:49:11.873Z,1990
2017-07-21T12:50:27.383Z,3920
2017-07-21T12:51:42.915Z,2340
2017-07-21T12:52:58.580Z,3685
2017-07-21T12:54:14.077Z,3555
2017-07-21T12:55:29.659Z,3405
2017-07-21T12:56:45.304Z,3665
2017-07-21T12:58:01.383Z,3620
2017-07-21T12:59:16.895Z,3745
2017-07-21T13:00:32.345Z,4090
2017-07-21T13:01:47.852Z,1360
2017-07-21T13:03:03.561Z,1335
2017-07-21T13:04:19.066Z,1195
2017-07-21T13:05:34.524Z,1220
2017-07-21T13:06:50.287Z,3850
2017-07-21T13:08:06.049Z,4170
2017-07-21T13:09:21.706Z,3865
2017-07-21T13:10:37.147Z,2530
2017-07-21T13:11:51.557Z,3600
2017-07-21T13:13:07.309Z,3555
2017-07-21T13:14:22.872Z,3635
2017-07-21T13:15:38.376Z,3485
2017-07-21T13:16:53.847Z,3570
2017-07-21T13:18:09.605Z,3580
2017-07-21T13:19:25.073Z,3580
2017-07-21T13:20:40.462Z,3540
2017-07-21T13:21:54.640Z,3375
2017-07-21T13:23:10.589Z,1400
2017-07-21T13:24:26.119Z,1215
2017-07-21T13:25:41.577Z,2380
2017-07-21T13:26:56.771Z,3310
2017-07-21T13:28:12.695Z,3570
2017-07-21T13:29:26.904Z,3795
2017-07-21T13:30:42.368Z,3660
2017-07-21T13:31:57.841Z,3255
2017-07-21T13:33:13.598Z,3085
2017-07-21T13:34:27.718Z,3100
2017-07-21T13:35:43.177Z,3160
2017-07-21T13:36:58.351Z,3330
2017-07-21T13:38:14.328Z,3580
2017-07-21T13:39:28.543Z,3665
2017-07-21T13:40:44.359Z,3475
2017-07-21T13:41:59.904Z,2890
2017-07-21T13:43:15.653Z,3160
2017-07-21T13:44:31.200Z,3305
2017-07-21T13:45:46.694Z,3505
2017-07-21T13:47:02.396Z,3655
2017-07-21T13:48:17.110Z,3645
2017-07-21T13:49:31.267Z,3450
2017-07-21T13:50:46.774Z,3290
2017-07-21T13:52:02.243Z,3215
2017-07-21T13:53:17.982Z,3270
2017-07-21T13:54:33.466Z,3295
2017-07-21T13:55:49.052Z,3205
2017-07-21T13:57:04.515Z,3060
2017-07-21T13:58:20.249Z,3040
2017-07-21T13:59:35.785Z,3065
2017-07-21T14:00:51.533Z,2985
2017-07-21T14:02:07.216Z,2935
2017-07-21T14:03:22.961Z,3005
2017-07-21T14:04:38.498Z,3195
2017-07-21T14:05:53.996Z,3230
2017-07-21T14:07:09.681Z,3110
2017-07-21T14:08:25.422Z,2980
2017-07-21T14:09:40.942Z,2780
2017-07-21T14:10:56.415Z,2715
2017-07-21T14:12:11.935Z,2765
2017-07-21T14:13:27.676Z,2885
2017-07-21T14:14:43.176Z,2960
2017-07-21T14:15:57.555Z,3090
2017-07-21T14:17:12.709Z,3205
2017-07-21T14:18:28.593Z,3195
2017-07-21T14:19:44.178Z,3100
2017-07-21T14:20:59.802Z,3045
2017-07-21T14:22:15.313Z,3105
2017-07-21T14:23:31.029Z,3080
2017-07-21T14:24:46.561Z,2950
2017-07-21T14:26:02.015Z,2690
2017-07-21T14:27:17.595Z,2820
2017-07-21T14:28:33.413Z,3030
2017-07-21T14:29:47.475Z,3135
2017-07-21T14:31:02.978Z,3010
2017-07-21T14:32:18.637Z,2630
2017-07-21T14:33:34.344Z,2280
2017-07-21T14:34:48.594Z,2010
2017-07-21T14:36:04.057Z,675
2017-07-21T14:37:19.582Z,555
2017-07-21T14:38:35.320Z,560
2017-07-21T14:39:51.181Z,605
2017-07-21T14:41:06.682Z,795
2017-07-21T14:42:22.326Z,2735
2017-07-21T14:43:38.132Z,2150
2017-07-21T14:44:52.522Z,1560
2017-07-21T14:46:07.849Z,1420
2017-07-21T14:47:23.363Z,735
2017-07-21T14:48:39.149Z,2020
2017-07-21T14:49:54.854Z,1670
2017-07-21T14:51:10.377Z,2230
2017-07-21T14:52:25.506Z,2390
2017-07-21T14:53:41.196Z,2435
2017-07-21T14:54:56.704Z,2430
2017-07-21T14:56:12.185Z,1160
2017-07-21T14:57:27.671Z,2605
2017-07-21T14:58:43.511Z,1580
2017-07-21T14:59:59.000Z,1850
2017-07-21T15:01:14.552Z,1420
2017-07-21T15:02:28.946Z,1615
2017-07-21T15:03:44.732Z,470
2017-07-21T15:05:00.394Z,470
2017-07-21T15:06:16.156Z,455
2017-07-21T15:07:31.616Z,420
2017-07-21T15:08:47.344Z,435
2017-07-21T15:10:02.881Z,510
2017-07-21T15:11:17.057Z,820
2017-07-21T15:12:31.217Z,1960
2017-07-21T15:13:47.164Z,2170
2017-07-21T15:15:02.749Z,465
2017-07-21T15:16:16.749Z,480
2017-07-21T15:17:32.267Z,1620
2017-07-21T15:18:47.988Z,1530
2017-07-21T15:20:03.483Z,1025
2017-07-21T15:21:19.184Z,650
2017-07-21T15:22:34.813Z,620
2017-07-21T15:23:50.553Z,600
2017-07-21T15:25:06.004Z,505
2017-07-21T15:26:21.540Z,465
2017-07-21T15:27:37.028Z,485
2017-07-21T15:28:52.710Z,500
2017-07-21T15:30:08.233Z,565
2017-07-21T15:31:23.997Z,555
2017-07-21T15:32:39.826Z,535
2017-07-21T15:33:55.559Z,505
2017-07-21T15:35:11.015Z,495
2017-07-21T15:36:26.547Z,390
2017-07-21T15:37:42.052Z,375
2017-07-21T15:38:56.480Z,370
2017-07-21T15:40:11.949Z,370
2017-07-21T15:41:27.569Z,370
2017-07-21T15:42:43.009Z,380
2017-07-21T15:43:58.672Z,435
2017-07-21T15:45:14.249Z,380
2017-07-21T15:46:28.445Z,410
2017-07-21T15:47:44.025Z,390
2017-07-21T15:48:59.760Z,395
2017-07-21T15:50:15.301Z,430
2017-07-21T15:51:30.780Z,410
2017-07-21T15:52:46.234Z,415
2017-07-21T15:54:02.023Z,415
2017-07-21T15:55:17.636Z,415
2017-07-21T15:56:33.227Z,415
2017-07-21T15:57:48.682Z,410
2017-07-21T15:59:04.421Z,405
2017-07-21T16:00:19.934Z,405
2017-07-21T16:01:35.433Z,400
2017-07-21T16:02:51.143Z,400
2017-07-21T16:04:06.864Z,395
2017-07-21T16:05:22.345Z,395
2017-07-21T16:06:37.831Z,390
2017-07-21T16:07:53.346Z,385
2017-07-21T16:09:09.065Z,380
2017-07-21T16:10:24.566Z,375
2017-07-21T16:11:40.116Z,370
2017-07-21T16:12:55.627Z,360
2017-07-21T16:14:11.400Z,360
2017-07-21T16:15:26.909Z,365
2017-07-21T16:16:42.031Z,360
2017-07-21T16:17:57.492Z,355
2017-07-21T16:19:13.187Z,350
2017-07-21T16:20:28.730Z,350
2017-07-21T16:21:44.194Z,350
2017-07-21T16:22:59.744Z,350
2017-07-21T16:24:15.684Z,350
2017-07-21T16:25:31.195Z,345
2017-07-21T16:26:46.706Z,350
2017-07-21T16:28:02.343Z,360
2017-07-21T16:29:18.111Z,360
2017-07-21T16:30:33.580Z,355
2017-07-21T16:31:49.105Z,345
2017-07-21T16:33:04.644Z,335
2017-07-21T16:34:20.347Z,335
2017-07-21T16:35:34.710Z,335
2017-07-21T16:36:50.247Z,335
2017-07-21T16:38:05.722Z,340
2017-07-21T16:39:21.655Z,350
2017-07-21T16:40:37.145Z,350
2017-07-21T16:41:52.727Z,355
2017-07-21T16:43:08.349Z,340
2017-07-21T16:44:24.088Z,340
2017-07-21T16:45:39.675Z,325
2017-07-21T16:46:55.180Z,305
2017-07-21T16:48:10.669Z,280
2017-07-21T16:49:26.428Z,265
2017-07-21T16:50:41.886Z,260
2017-07-21T16:51:57.421Z,255
2017-07-21T16:53:12.946Z,255
2017-07-21T16:54:28.717Z,250
2017-07-21T16:55:44.235Z,245
2017-07-21T16:56:59.841Z,250
2017-07-21T16:58:15.351Z,250
2017-07-21T16:59:31.086Z,245
2017-07-21T17:00:45.334Z,240
2017-07-21T17:01:59.418Z,230
2017-07-21T17:03:14.909Z,230
2017-07-21T17:04:30.849Z,225
2017-07-21T17:05:46.379Z,220
2017-07-21T17:07:02.214Z,220
2017-07-21T17:08:17.337Z,215
2017-07-21T17:09:33.115Z,210
2017-07-21T17:10:48.660Z,205
2017-07-21T17:12:04.140Z,205
2017-07-21T17:13:19.745Z,200
2017-07-21T17:14:35.480Z,200
2017-07-21T17:15:51.069Z,190
2017-07-21T17:17:06.648Z,190
2017-07-21T17:18:20.922Z,185
2017-07-21T17:19:36.698Z,185
2017-07-21T17:20:52.239Z,185
2017-07-21T17:22:06.264Z,185
2017-07-21T17:23:21.775Z,185
2017-07-21T17:24:37.588Z,185
2017-07-21T17:25:53.064Z,180
2017-07-21T17:27:08.584Z,180
2017-07-21T17:28:24.290Z,180